Terminal Aerodrome Forecast
Issued by NWS

Home | Current Version | Previous Version | Text Only | Print | Product List | Glossary On
Versions: 1 2 3 4 5 6 7 8 9 10 11 12 13 14 15 16 17 18 19 20 21 22 23 24 25 26 27 28 29 30 31 32
000
FTUS46 KPDT 201400 AAC
TAFDLS
TAF AMD
KDLS 201449Z 2015/2112 VRB03KT 2SM -RA BR BKN007 OVC050
      TEMPO 2015/2017 4SM -RA BR SCT007 OVC025
     FM201700 VRB03KT 4SM -RA BR OVC011
     FM210000 31005KT 5SM -RA BR OVC025
     FM211000 30015G25KT P6SM VCSH OVC040=

USA.gov is the U.S. government's official web portal to all federal, state and local government web resources and services.